Time,TemperatureF,DewpointF,PressureIn,WindDirection,WindDirectionDegrees,WindSpeedMPH,WindSpeedGustMPH,Humidity,HourlyPrecipIn,Conditions,Clouds,dailyrainin,SolarRadiationWatts/m^2,SoftwareType,DateUTC
2013-07-23 00:33:00,54.0,51.0,30.08,SW,226,0.0,1.0,88,0.00,,,0.00,0.000000,,2013-07-23 08:33:00,
2013-07-23 00:43:00,54.0,51.0,30.09,SE,143,0.0,2.0,88,0.00,,,0.00,0.000000,,2013-07-23 08:43:00,
2013-07-23 00:52:00,54.0,51.0,30.09,SE,143,0.0,2.0,88,0.00,,,0.00,0.000000,,2013-07-23 08:52:00,
2013-07-23 01:01:00,54.0,50.0,30.09,SSE,161,0.0,2.0,86,0.00,,,0.00,0.000000,,2013-07-23 09:01:00,
2013-07-23 01:33:00,55.0,49.0,30.09,ESE,123,0.0,3.0,80,0.00,,,0.00,0.000000,,2013-07-23 09:33:00,
2013-07-23 01:52:00,56.0,50.0,30.09,ESE,122,0.0,2.0,79,0.00,,,0.00,0.000000,,2013-07-23 09:52:00,
2013-07-23 02:01:00,55.0,49.0,30.09,ESE,123,0.0,0.0,79,0.00,,,0.00,0.000000,,2013-07-23 10:01:00,
2013-07-23 02:11:00,55.0,49.0,30.09,ESE,123,0.0,0.0,79,0.00,,,0.00,0.000000,,2013-07-23 10:11:00,
2013-07-23 02:21:00,54.0,48.0,30.09,SE,125,0.0,2.0,81,0.00,,,0.00,0.000000,,2013-07-23 10:21:00,
2013-07-23 03:01:00,53.0,48.0,30.09,SE,125,0.0,1.0,84,0.00,,,0.00,0.000000,,2013-07-23 11:01:00,
2013-07-23 03:11:00,53.0,48.0,30.09,SE,125,0.0,1.0,84,0.00,,,0.00,0.000000,,2013-07-23 11:11:00,
2013-07-23 03:21:00,53.0,48.0,30.09,SE,125,0.0,0.0,84,0.00,,,0.00,0.000000,,2013-07-23 11:21:00,
2013-07-23 03:32:00,53.0,49.0,30.09,SE,125,0.0,0.0,85,0.00,,,0.00,0.000000,,2013-07-23 11:32:00,
2013-07-23 03:43:00,52.0,48.0,30.09,SE,125,0.0,0.0,86,0.00,,,0.00,0.000000,,2013-07-23 11:43:00,
2013-07-23 03:52:00,52.0,48.0,30.09,SE,125,0.0,0.0,86,0.00,,,0.00,0.000000,,2013-07-23 11:52:00,
2013-07-23 04:02:00,52.0,48.0,30.09,SE,125,0.0,0.0,87,0.00,,,0.00,0.000000,,2013-07-23 12:02:00,
2013-07-23 04:11:00,52.0,48.0,30.09,SE,125,0.0,0.0,87,0.00,,,0.00,0.000000,,2013-07-23 12:11:00,
2013-07-23 04:33:00,52.0,48.0,30.09,SE,125,0.0,0.0,87,0.00,,,0.00,0.000000,,2013-07-23 12:33:00,
2013-07-23 04:43:00,52.0,49.0,30.10,SE,125,0.0,0.0,88,0.00,,,0.00,0.000000,,2013-07-23 12:43:00,
2013-07-23 05:11:00,52.0,49.0,30.09,SE,125,0.0,0.0,89,0.00,,,0.00,0.000000,,2013-07-23 13:11:00,
2013-07-23 05:32:00,52.0,49.0,30.09,SE,125,0.0,0.0,88,0.00,,,0.00,0.000000,,2013-07-23 13:32:00,
2013-07-23 05:43:00,51.0,48.0,30.09,SE,125,0.0,0.0,89,0.00,,,0.00,5.000000,,2013-07-23 13:43:00,
2013-07-23 05:52:00,51.0,48.0,30.09,SE,125,0.0,0.0,89,0.00,,,0.00,5.000000,,2013-07-23 13:52:00,
2013-07-23 06:02:00,50.0,47.0,30.09,SE,125,0.0,0.0,89,0.00,,,0.00,9.000000,,2013-07-23 14:02:00,
2013-07-23 06:12:00,50.0,47.0,30.09,SE,125,0.0,0.0,90,0.00,,,0.00,12.000000,,2013-07-23 14:12:00,
2013-07-23 06:22:00,50.0,47.0,30.09,SE,125,0.0,0.0,90,0.00,,,0.00,18.000000,,2013-07-23 14:22:00,
2013-07-23 06:32:00,49.0,46.0,30.09,SE,125,0.0,0.0,90,0.00,,,0.00,25.000000,,2013-07-23 14:32:00,
2013-07-23 06:44:00,49.0,46.0,30.10,SE,125,0.0,0.0,91,0.00,,,0.00,44.000000,,2013-07-23 14:44:00,
2013-07-23 06:53:00,49.0,46.0,30.10,SE,125,0.0,0.0,91,0.00,,,0.00,44.000000,,2013-07-23 14:53:00,
2013-07-23 07:03:00,49.0,46.0,30.09,SE,125,0.0,0.0,91,0.00,,,0.00,47.000000,,2013-07-23 15:03:00,
2013-07-23 07:11:00,50.0,48.0,30.10,SE,125,0.0,1.0,92,0.00,,,0.00,39.000000,,2013-07-23 15:11:00,
2013-07-23 07:24:00,50.0,48.0,30.10,SE,125,0.0,0.0,92,0.00,,,0.00,35.000000,,2013-07-23 15:24:00,
2013-07-23 07:32:00,50.0,48.0,30.10,SE,125,0.0,0.0,92,0.00,,,0.00,40.000000,,2013-07-23 15:32:00,
2013-07-23 07:43:00,51.0,49.0,30.10,SE,125,0.0,0.0,92,0.00,,,0.00,179.000000,,2013-07-23 15:43:00,
2013-07-23 07:52:00,51.0,49.0,30.10,SE,125,0.0,0.0,92,0.00,,,0.00,179.000000,,2013-07-23 15:52:00,
2013-07-23 08:01:00,53.0,50.0,30.11,SE,125,0.0,0.0,91,0.00,,,0.00,202.000000,,2013-07-23 16:01:00,
2013-07-23 08:33:00,60.0,54.0,30.11,SE,125,0.0,1.0,80,0.00,,,0.00,345.000000,,2013-07-23 16:33:00,
2013-07-23 08:43:00,61.0,54.0,30.10,SE,125,0.0,1.0,77,0.00,,,0.00,339.000000,,2013-07-23 16:43:00,
2013-07-23 08:52:00,63.0,55.0,30.10,SE,125,0.0,1.0,74,0.00,,,0.00,410.000000,,2013-07-23 16:52:00,
2013-07-23 09:21:00,63.0,54.0,30.10,ESE,121,0.0,3.0,72,0.00,,,0.00,195.000000,,2013-07-23 17:21:00,
2013-07-23 09:32:00,63.0,55.0,30.11,ESE,121,0.0,0.0,74,0.00,,,0.00,244.000000,,2013-07-23 17:32:00,
2013-07-23 09:42:00,64.0,54.0,30.10,ESE,121,0.0,1.0,71,0.00,,,0.00,415.000000,,2013-07-23 17:42:00,
2013-07-23 09:53:00,64.0,54.0,30.10,ESE,121,0.0,1.0,71,0.00,,,0.00,415.000000,,2013-07-23 17:53:00,
2013-07-23 10:11:00,65.0,53.0,30.10,ESE,118,0.0,2.0,66,0.00,,,0.00,497.000000,,2013-07-23 18:11:00,
2013-07-23 10:43:00,67.0,53.0,30.10,SW,220,1.0,3.0,61,0.00,,,0.00,584.000000,,2013-07-23 18:43:00,
2013-07-23 10:52:00,67.0,53.0,30.10,SW,220,1.0,3.0,61,0.00,,,0.00,584.000000,,2013-07-23 18:52:00,
2013-07-23 11:01:00,67.0,54.0,30.09,WSW,258,0.0,3.0,64,0.00,,,0.00,494.000000,,2013-07-23 19:01:00,
2013-07-23 11:12:00,67.0,54.0,30.09,WSW,258,0.0,3.0,64,0.00,,,0.00,494.000000,,2013-07-23 19:12:00,
2013-07-23 11:22:00,67.0,54.0,30.10,WSW,246,0.0,3.0,62,0.00,,,0.00,519.000000,,2013-07-23 19:22:00,
2013-07-23 11:32:00,66.0,53.0,30.09,West,281,1.0,3.0,63,0.00,,,0.00,417.000000,,2013-07-23 19:32:00,
2013-07-23 11:52:00,66.0,54.0,30.09,NW,306,0.0,3.0,66,0.00,,,0.00,352.000000,,2013-07-23 19:52:00,
2013-07-23 12:11:00,64.0,54.0,30.09,NNW,344,1.0,5.0,70,0.00,,,0.00,325.000000,,2013-07-23 20:11:00,
2013-07-23 12:32:00,64.0,54.0,30.09,NW,316,1.0,3.0,70,0.00,,,0.00,313.000000,,2013-07-23 20:32:00,
2013-07-23 12:53:00,63.0,54.0,30.09,NW,319,0.0,2.0,72,0.00,,,0.00,278.000000,,2013-07-23 20:53:00,
2013-07-23 13:02:00,63.0,54.0,30.09,NW,316,0.0,2.0,73,0.00,,,0.00,279.000000,,2013-07-23 21:02:00,
2013-07-23 13:22:00,63.0,54.0,30.08,SSW,196,1.0,3.0,72,0.00,,,0.00,262.000000,,2013-07-23 21:22:00,
2013-07-23 13:44:00,64.0,55.0,30.08,SSW,198,0.0,2.0,73,0.00,,,0.00,336.000000,,2013-07-23 21:44:00,
2013-07-23 13:53:00,64.0,55.0,30.08,SSW,198,0.0,2.0,73,0.00,,,0.00,336.000000,,2013-07-23 21:53:00,
2013-07-23 14:02:00,64.0,55.0,30.09,WSW,239,0.0,2.0,72,0.00,,,0.00,285.000000,,2013-07-23 22:02:00,
2013-07-23 14:11:00,64.0,55.0,30.09,WSW,239,0.0,2.0,72,0.00,,,0.00,285.000000,,2013-07-23 22:11:00,
2013-07-23 14:32:00,63.0,54.0,30.08,WSW,238,1.0,2.0,73,0.00,,,0.00,332.000000,,2013-07-23 22:32:00,
2013-07-23 14:43:00,65.0,55.0,30.08,SW,215,1.0,3.0,71,0.00,,,0.00,828.000000,,2013-07-23 22:43:00,
2013-07-23 15:02:00,67.0,56.0,30.08,South,178,2.0,6.0,68,0.00,,,0.00,898.000000,,2013-07-23 23:02:00,
2013-07-23 15:11:00,68.0,57.0,30.08,South,184,1.0,3.0,67,0.00,,,0.00,817.000000,,2013-07-23 23:11:00,
2013-07-23 15:22:00,67.0,56.0,30.08,SSW,193,1.0,5.0,68,0.00,,,0.00,779.000000,,2013-07-23 23:22:00,
2013-07-23 15:33:00,66.0,56.0,30.08,SSW,194,2.0,6.0,69,0.00,,,0.00,366.000000,,2013-07-23 23:33:00,
2013-07-23 15:43:00,65.0,56.0,30.08,SW,223,2.0,5.0,72,0.00,,,0.00,828.000000,,2013-07-23 23:43:00,
2013-07-23 15:53:00,66.0,56.0,30.07,South,178,2.0,5.0,69,0.00,,,0.00,636.000000,,2013-07-23 23:53:00,
2013-07-23 16:02:00,66.0,56.0,30.07,South,187,2.0,5.0,69,0.00,,,0.00,937.000000,,2013-07-24 00:02:00,
2013-07-23 16:12:00,66.0,56.0,30.07,South,187,2.0,5.0,69,0.00,,,0.00,937.000000,,2013-07-24 00:12:00,
2013-07-23 16:22:00,66.0,56.0,30.07,SW,232,1.0,6.0,69,0.00,,,0.00,735.000000,,2013-07-24 00:22:00,
2013-07-23 16:32:00,66.0,56.0,30.07,WNW,298,1.0,3.0,70,0.00,,,0.00,654.000000,,2013-07-24 00:32:00,
2013-07-23 16:43:00,66.0,55.0,30.07,West,266,0.0,3.0,68,0.00,,,0.00,629.000000,,2013-07-24 00:43:00,
2013-07-23 16:53:00,66.0,55.0,30.07,West,266,0.0,3.0,68,0.00,,,0.00,629.000000,,2013-07-24 00:53:00,
2013-07-23 17:12:00,67.0,56.0,30.06,West,281,1.0,5.0,69,0.00,,,0.00,784.000000,,2013-07-24 01:12:00,
2013-07-23 17:22:00,67.0,56.0,30.06,WNW,294,2.0,5.0,69,0.00,,,0.00,485.000000,,2013-07-24 01:22:00,
2013-07-23 17:32:00,65.0,55.0,30.06,WSW,251,2.0,5.0,70,0.00,,,0.00,362.000000,,2013-07-24 01:32:00,
2013-07-23 17:43:00,64.0,56.0,30.06,WSW,252,1.0,3.0,74,0.00,,,0.00,225.000000,,2013-07-24 01:43:00,
2013-07-23 17:53:00,64.0,56.0,30.06,WSW,252,1.0,3.0,74,0.00,,,0.00,225.000000,,2013-07-24 01:53:00,
2013-07-23 18:02:00,62.0,55.0,30.06,WSW,258,1.0,3.0,77,0.00,,,0.00,209.000000,,2013-07-24 02:02:00,
2013-07-23 18:12:00,62.0,55.0,30.06,WSW,258,1.0,3.0,77,0.00,,,0.00,209.000000,,2013-07-24 02:12:00,
2013-07-23 18:22:00,62.0,55.0,30.06,WSW,246,0.0,3.0,78,0.00,,,0.00,236.000000,,2013-07-24 02:22:00,
2013-07-23 18:33:00,61.0,55.0,30.06,SSW,206,0.0,3.0,80,0.00,,,0.00,323.000000,,2013-07-24 02:33:00,
2013-07-23 18:44:00,61.0,55.0,30.05,WNW,293,2.0,3.0,80,0.00,,,0.00,357.000000,,2013-07-24 02:44:00,
2013-07-23 18:53:00,61.0,55.0,30.05,WNW,293,2.0,3.0,80,0.00,,,0.00,357.000000,,2013-07-24 02:53:00,
2013-07-23 19:02:00,61.0,54.0,30.05,West,267,1.0,3.0,79,0.00,,,0.00,56.000000,,2013-07-24 03:02:00,
2013-07-23 19:22:00,62.0,55.0,30.05,SSW,207,1.0,5.0,78,0.00,,,0.00,424.000000,,2013-07-24 03:22:00,
2013-07-23 19:32:00,62.0,55.0,30.05,SW,222,2.0,5.0,77,0.00,,,0.00,60.000000,,2013-07-24 03:32:00,
2013-07-23 19:53:00,62.0,55.0,30.05,WSW,250,1.0,3.0,78,0.00,,,0.00,72.000000,,2013-07-24 03:53:00,
2013-07-23 20:01:00,63.0,56.0,30.05,SSW,202,1.0,3.0,77,0.00,,,0.00,54.000000,,2013-07-24 04:01:00,
2013-07-23 20:22:00,63.0,56.0,30.05,West,268,0.0,5.0,77,0.00,,,0.00,47.000000,,2013-07-24 04:22:00,
2013-07-23 20:32:00,62.0,55.0,30.04,WSW,245,2.0,7.0,78,0.00,,,0.00,53.000000,,2013-07-24 04:32:00,
2013-07-23 20:43:00,62.0,55.0,30.04,SSW,212,1.0,5.0,79,0.00,,,0.00,200.000000,,2013-07-24 04:43:00,
2013-07-23 20:52:00,62.0,55.0,30.04,SSW,212,1.0,5.0,79,0.00,,,0.00,200.000000,,2013-07-24 04:52:00,
2013-07-23 21:02:00,61.0,55.0,30.04,SW,224,1.0,6.0,80,0.00,,,0.00,39.000000,,2013-07-24 05:02:00,
2013-07-23 21:32:00,59.0,54.0,30.04,South,181,1.0,5.0,83,0.00,,,0.00,33.000000,,2013-07-24 05:32:00,
2013-07-23 21:43:00,58.0,54.0,30.04,SW,231,1.0,3.0,85,0.00,,,0.00,33.000000,,2013-07-24 05:43:00,
2013-07-23 21:52:00,58.0,54.0,30.04,SW,231,1.0,3.0,85,0.00,,,0.00,33.000000,,2013-07-24 05:52:00,
2013-07-23 22:01:00,58.0,54.0,30.05,SSW,198,1.0,3.0,85,0.00,,,0.00,32.000000,,2013-07-24 06:01:00,
2013-07-23 22:11:00,58.0,54.0,30.05,SSW,192,0.0,3.0,85,0.00,,,0.00,35.000000,,2013-07-24 06:11:00,
2013-07-23 22:34:00,58.0,54.0,30.04,SW,214,0.0,5.0,85,0.00,,,0.00,37.000000,,2013-07-24 06:34:00,
2013-07-23 22:43:00,57.0,53.0,30.04,South,175,0.0,2.0,86,0.00,,,0.00,23.000000,,2013-07-24 06:43:00,
2013-07-23 22:53:00,57.0,53.0,30.04,South,175,0.0,2.0,86,0.00,,,0.00,23.000000,,2013-07-24 06:53:00,
2013-07-23 23:02:00,57.0,53.0,30.04,South,184,0.0,2.0,86,0.00,,,0.00,12.000000,,2013-07-24 07:02:00,
2013-07-23 23:11:00,57.0,53.0,30.04,South,184,0.0,2.0,86,0.00,,,0.00,12.000000,,2013-07-24 07:11:00,
2013-07-23 23:32:00,56.0,52.0,30.04,SSW,206,0.0,2.0,87,0.00,,,0.00,5.000000,,2013-07-24 07:32:00,
2013-07-23 23:43:00,55.0,52.0,30.04,SSW,203,0.0,1.0,88,0.00,,,0.00,0.000000,,2013-07-24 07:43:00,
2013-07-23 23:52:00,55.0,52.0,30.04,SSW,203,0.0,1.0,88,0.00,,,0.00,0.000000,,2013-07-24 07:52:00,